sensor_id;sensor_type;location;lat;lon;timestamp;P1;durP1;ratioP1;P2;durP2;ratioP2
35444;SDS011;21562;49.476;6.086;2024-03-23T00:53:36;34.53;;;15.18;;
35444;SDS011;21562;49.476;6.086;2024-03-23T00:56:02;29.70;;;14.00;;
35444;SDS011;21562;49.476;6.086;2024-03-23T00:58:28;27.80;;;13.73;;
35444;SDS011;21562;49.476;6.086;2024-03-23T01:00:54;28.05;;;13.70;;
35444;SDS011;21562;49.476;6.086;2024-03-23T01:03:20;27.77;;;13.35;;
35444;SDS011;21562;49.476;6.086;2024-03-23T01:05:46;31.02;;;13.65;;
35444;SDS011;21562;49.476;6.086;2024-03-23T01:08:11;24.98;;;13.20;;
35444;SDS011;21562;49.476;6.086;2024-03-23T01:10:37;27.02;;;13.65;;
35444;SDS011;21562;49.476;6.086;2024-03-23T01:13:03;31.63;;;14.73;;
35444;SDS011;21562;49.476;6.086;2024-03-23T01:15:28;28.60;;;13.15;;
35444;SDS011;21562;49.476;6.086;2024-03-23T01:17:54;26.73;;;13.48;;
35444;SDS011;21562;49.476;6.086;2024-03-23T01:20:20;25.65;;;12.25;;
35444;SDS011;21562;49.476;6.086;2024-03-23T01:22:45;26.50;;;12.43;;
35444;SDS011;21562;49.476;6.086;2024-03-23T01:25:11;26.80;;;11.02;;
35444;SDS011;21562;49.476;6.086;2024-03-23T01:27:37;23.02;;;11.13;;
35444;SDS011;21562;49.476;6.086;2024-03-23T01:30:02;23.10;;;10.88;;
35444;SDS011;21562;49.476;6.086;2024-03-23T01:32:28;16.65;;;7.97;;
35444;SDS011;21562;49.476;6.086;2024-03-23T01:34:54;13.85;;;6.63;;
35444;SDS011;21562;49.476;6.086;2024-03-23T01:37:20;6.65;;;3.85;;
35444;SDS011;21562;49.476;6.086;2024-03-23T01:39:45;4.60;;;2.55;;
35444;SDS011;21562;49.476;6.086;2024-03-23T01:42:12;6.10;;;2.05;;
35444;SDS011;21562;49.476;6.086;2024-03-23T01:44:37;3.05;;;1.58;;
35444;SDS011;21562;49.476;6.086;2024-03-23T01:47:03;2.22;;;1.33;;
35444;SDS011;21562;49.476;6.086;2024-03-23T01:49:29;1.95;;;1.10;;
35444;SDS011;21562;49.476;6.086;2024-03-23T01:51:55;1.50;;;0.93;;
35444;SDS011;21562;49.476;6.086;2024-03-23T01:54:21;1.98;;;0.88;;
35444;SDS011;21562;49.476;6.086;2024-03-23T01:56:48;1.20;;;0.90;;
35444;SDS011;21562;49.476;6.086;2024-03-23T01:59:14;1.25;;;0.75;;
35444;SDS011;21562;49.476;6.086;2024-03-23T02:01:40;1.27;;;0.93;;
35444;SDS011;21562;49.476;6.086;2024-03-23T02:04:06;1.58;;;1.10;;
35444;SDS011;21562;49.476;6.086;2024-03-23T02:06:32;2.67;;;1.10;;
35444;SDS011;21562;49.476;6.086;2024-03-23T02:08:58;1.50;;;0.90;;
35444;SDS011;21562;49.476;6.086;2024-03-23T02:11:25;1.58;;;0.70;;
35444;SDS011;21562;49.476;6.086;2024-03-23T02:13:51;1.17;;;0.80;;
35444;SDS011;21562;49.476;6.086;2024-03-23T02:16:16;0.68;;;0.57;;
35444;SDS011;21562;49.476;6.086;2024-03-23T02:18:42;1.35;;;0.70;;
35444;SDS011;21562;49.476;6.086;2024-03-23T02:21:08;0.50;;;0.40;;
35444;SDS011;21562;49.476;6.086;2024-03-23T02:23:33;1.05;;;0.60;;
35444;SDS011;21562;49.476;6.086;2024-03-23T02:25:59;0.35;;;0.30;;
35444;SDS011;21562;49.476;6.086;2024-03-23T02:28:25;0.57;;;0.40;;
35444;SDS011;21562;49.476;6.086;2024-03-23T02:30:50;0.98;;;0.30;;
35444;SDS011;21562;49.476;6.086;2024-03-23T02:33:16;0.98;;;0.40;;
35444;SDS011;21562;49.476;6.086;2024-03-23T02:35:45;0.70;;;0.50;;
35444;SDS011;21562;49.476;6.086;2024-03-23T02:38:12;2.75;;;0.85;;
35444;SDS011;21562;49.476;6.086;2024-03-23T02:40:37;1.40;;;0.82;;
35444;SDS011;21562;49.476;6.086;2024-03-23T02:43:03;3.25;;;1.00;;
35444;SDS011;21562;49.476;6.086;2024-03-23T02:45:29;1.55;;;0.73;;
35444;SDS011;21562;49.476;6.086;2024-03-23T02:47:55;2.42;;;0.65;;
35444;SDS011;21562;49.476;6.086;2024-03-23T02:50:21;2.45;;;0.90;;
35444;SDS011;21562;49.476;6.086;2024-03-23T02:52:47;2.08;;;0.98;;
35444;SDS011;21562;49.476;6.086;2024-03-23T02:55:13;2.33;;;0.60;;
35444;SDS011;21562;49.476;6.086;2024-03-23T02:57:39;1.63;;;0.82;;
35444;SDS011;21562;49.476;6.086;2024-03-23T03:00:05;2.17;;;1.00;;
35444;SDS011;21562;49.476;6.086;2024-03-23T03:02:32;5.22;;;0.95;;
35444;SDS011;21562;49.476;6.086;2024-03-23T03:04:58;3.45;;;1.30;;
35444;SDS011;21562;49.476;6.086;2024-03-23T03:07:24;2.35;;;0.95;;
35444;SDS011;21562;49.476;6.086;2024-03-23T03:09:50;2.85;;;1.00;;
35444;SDS011;21562;49.476;6.086;2024-03-23T03:12:16;1.77;;;0.90;;
35444;SDS011;21562;49.476;6.086;2024-03-23T03:14:42;1.73;;;0.55;;
35444;SDS011;21562;49.476;6.086;2024-03-23T03:17:07;1.48;;;0.52;;
35444;SDS011;21562;49.476;6.086;2024-03-23T03:19:33;0.82;;;0.57;;
35444;SDS011;21562;49.476;6.086;2024-03-23T03:21:59;0.70;;;0.50;;
35444;SDS011;21562;49.476;6.086;2024-03-23T03:24:25;1.13;;;0.55;;
35444;SDS011;21562;49.476;6.086;2024-03-23T03:26:51;2.35;;;0.63;;
35444;SDS011;21562;49.476;6.086;2024-03-23T03:29:16;1.90;;;0.65;;
35444;SDS011;21562;49.476;6.086;2024-03-23T03:31:42;1.25;;;0.80;;
35444;SDS011;21562;49.476;6.086;2024-03-23T03:34:09;1.98;;;1.10;;
35444;SDS011;21562;49.476;6.086;2024-03-23T03:36:34;1.15;;;0.98;;
35444;SDS011;21562;49.476;6.086;2024-03-23T03:39:00;1.42;;;0.93;;
35444;SDS011;21562;49.476;6.086;2024-03-23T03:41:28;1.23;;;0.80;;
35444;SDS011;21562;49.476;6.086;2024-03-23T03:43:54;3.33;;;1.40;;
35444;SDS011;21562;49.476;6.086;2024-03-23T03:46:20;3.15;;;1.60;;
35444;SDS011;21562;49.476;6.086;2024-03-23T03:48:46;3.70;;;1.40;;
35444;SDS011;21562;49.476;6.086;2024-03-23T03:51:13;1.42;;;0.90;;
35444;SDS011;21562;49.476;6.086;2024-03-23T03:53:39;1.73;;;0.98;;
35444;SDS011;21562;49.476;6.086;2024-03-23T03:56:05;0.98;;;0.63;;
35444;SDS011;21562;49.476;6.086;2024-03-23T03:58:30;3.40;;;0.77;;
35444;SDS011;21562;49.476;6.086;2024-03-23T04:00:56;4.25;;;1.20;;
35444;SDS011;21562;49.476;6.086;2024-03-23T04:03:22;1.20;;;0.98;;
35444;SDS011;21562;49.476;6.086;2024-03-23T04:05:51;1.27;;;0.90;;
35444;SDS011;21562;49.476;6.086;2024-03-23T04:08:18;1.85;;;0.80;;
35444;SDS011;21562;49.476;6.086;2024-03-23T04:10:44;1.35;;;1.00;;
35444;SDS011;21562;49.476;6.086;2024-03-23T04:13:10;2.75;;;0.88;;
35444;SDS011;21562;49.476;6.086;2024-03-23T04:15:37;2.65;;;1.45;;
35444;SDS011;21562;49.476;6.086;2024-03-23T04:18:02;4.80;;;1.35;;
35444;SDS011;21562;49.476;6.086;2024-03-23T04:20:28;3.60;;;1.60;;
35444;SDS011;21562;49.476;6.086;2024-03-23T04:22:54;3.70;;;1.40;;
35444;SDS011;21562;49.476;6.086;2024-03-23T04:25:20;2.50;;;1.13;;
35444;SDS011;21562;49.476;6.086;2024-03-23T04:27:45;4.03;;;1.85;;
35444;SDS011;21562;49.476;6.086;2024-03-23T04:30:11;4.22;;;1.60;;
35444;SDS011;21562;49.476;6.086;2024-03-23T04:32:37;4.43;;;1.73;;
35444;SDS011;21562;49.476;6.086;2024-03-23T04:35:03;4.72;;;1.80;;
35444;SDS011;21562;49.476;6.086;2024-03-23T04:37:31;5.95;;;2.10;;
35444;SDS011;21562;49.476;6.086;2024-03-23T04:40:01;6.80;;;2.17;;
35444;SDS011;21562;49.476;6.086;2024-03-23T04:42:28;6.72;;;2.55;;
35444;SDS011;21562;49.476;6.086;2024-03-23T04:44:54;5.38;;;2.50;;
35444;SDS011;21562;49.476;6.086;2024-03-23T04:47:20;8.02;;;2.80;;
35444;SDS011;21562;49.476;6.086;2024-03-23T04:49:45;6.13;;;2.75;;
35444;SDS011;21562;49.476;6.086;2024-03-23T04:52:11;8.98;;;3.20;;
35444;SDS011;21562;49.476;6.086;2024-03-23T04:54:37;13.50;;;3.22;;
35444;SDS011;21562;49.476;6.086;2024-03-23T04:57:05;10.68;;;3.58;;
35444;SDS011;21562;49.476;6.086;2024-03-23T04:59:31;11.00;;;4.07;;
35444;SDS011;21562;49.476;6.086;2024-03-23T05:01:56;14.10;;;4.35;;
35444;SDS011;21562;49.476;6.086;2024-03-23T05:04:22;17.30;;;5.15;;
35444;SDS011;21562;49.476;6.086;2024-03-23T05:06:48;16.38;;;5.28;;
35444;SDS011;21562;49.476;6.086;2024-03-23T05:09:14;18.13;;;5.00;;
35444;SDS011;21562;49.476;6.086;2024-03-23T05:11:40;16.55;;;6.00;;
35444;SDS011;21562;49.476;6.086;2024-03-23T05:14:07;20.52;;;5.75;;
35444;SDS011;21562;49.476;6.086;2024-03-23T05:16:32;16.38;;;5.82;;
35444;SDS011;21562;49.476;6.086;2024-03-23T05:18:58;18.70;;;6.38;;
35444;SDS011;21562;49.476;6.086;2024-03-23T05:21:24;24.83;;;7.30;;
35444;SDS011;21562;49.476;6.086;2024-03-23T05:23:50;21.67;;;7.07;;
35444;SDS011;21562;49.476;6.086;2024-03-23T05:26:16;19.10;;;7.32;;
35444;SDS011;21562;49.476;6.086;2024-03-23T05:28:42;19.95;;;6.80;;
35444;SDS011;21562;49.476;6.086;2024-03-23T05:31:08;18.30;;;7.78;;
35444;SDS011;21562;49.476;6.086;2024-03-23T05:33:37;22.33;;;6.88;;
35444;SDS011;21562;49.476;6.086;2024-03-23T05:36:03;18.20;;;7.18;;
35444;SDS011;21562;49.476;6.086;2024-03-23T05:38:29;15.73;;;6.35;;
35444;SDS011;21562;49.476;6.086;2024-03-23T05:40:59;23.70;;;7.80;;
35444;SDS011;21562;49.476;6.086;2024-03-23T05:43:25;16.27;;;6.20;;
35444;SDS011;21562;49.476;6.086;2024-03-23T05:45:55;14.60;;;6.95;;
35444;SDS011;21562;49.476;6.086;2024-03-23T05:48:21;23.98;;;6.97;;
35444;SDS011;21562;49.476;6.086;2024-03-23T05:50:48;18.85;;;6.30;;
35444;SDS011;21562;49.476;6.086;2024-03-23T05:53:17;17.98;;;6.43;;
35444;SDS011;21562;49.476;6.086;2024-03-23T05:55:45;20.17;;;7.68;;
35444;SDS011;21562;49.476;6.086;2024-03-23T05:58:12;22.80;;;7.57;;
35444;SDS011;21562;49.476;6.086;2024-03-23T06:00:39;23.15;;;6.85;;
35444;SDS011;21562;49.476;6.086;2024-03-23T06:03:05;21.58;;;6.70;;
35444;SDS011;21562;49.476;6.086;2024-03-23T06:05:31;18.88;;;7.55;;
35444;SDS011;21562;49.476;6.086;2024-03-23T06:07:57;18.63;;;7.57;;
35444;SDS011;21562;49.476;6.086;2024-03-23T06:10:22;20.20;;;6.93;;
35444;SDS011;21562;49.476;6.086;2024-03-23T06:12:48;20.85;;;7.85;;
35444;SDS011;21562;49.476;6.086;2024-03-23T06:15:16;20.98;;;8.25;;
35444;SDS011;21562;49.476;6.086;2024-03-23T06:17:43;23.83;;;7.97;;
35444;SDS011;21562;49.476;6.086;2024-03-23T06:20:09;22.00;;;8.65;;
35444;SDS011;21562;49.476;6.086;2024-03-23T06:22:35;19.83;;;8.50;;
35444;SDS011;21562;49.476;6.086;2024-03-23T06:25:01;23.15;;;8.85;;
35444;SDS011;21562;49.476;6.086;2024-03-23T06:27:27;29.23;;;8.02;;
35444;SDS011;21562;49.476;6.086;2024-03-23T06:29:52;20.15;;;7.95;;
35444;SDS011;21562;49.476;6.086;2024-03-23T06:32:18;22.92;;;8.63;;
35444;SDS011;21562;49.476;6.086;2024-03-23T06:34:44;22.55;;;8.10;;
35444;SDS011;21562;49.476;6.086;2024-03-23T06:37:10;23.45;;;8.45;;
35444;SDS011;21562;49.476;6.086;2024-03-23T06:39:36;22.25;;;8.07;;
35444;SDS011;21562;49.476;6.086;2024-03-23T06:42:02;16.25;;;5.20;;
35444;SDS011;21562;49.476;6.086;2024-03-23T06:44:28;14.85;;;6.07;;
35444;SDS011;21562;49.476;6.086;2024-03-23T06:46:55;14.52;;;6.18;;
35444;SDS011;21562;49.476;6.086;2024-03-23T06:49:22;11.82;;;5.63;;
35444;SDS011;21562;49.476;6.086;2024-03-23T06:51:48;14.77;;;6.43;;
35444;SDS011;21562;49.476;6.086;2024-03-23T06:54:14;17.67;;;6.38;;
35444;SDS011;21562;49.476;6.086;2024-03-23T06:56:40;16.05;;;6.43;;
35444;SDS011;21562;49.476;6.086;2024-03-23T06:59:06;15.35;;;6.30;;
35444;SDS011;21562;49.476;6.086;2024-03-23T07:01:32;15.25;;;6.03;;
35444;SDS011;21562;49.476;6.086;2024-03-23T07:03:57;13.02;;;5.40;;
35444;SDS011;21562;49.476;6.086;2024-03-23T07:06:23;12.48;;;4.97;;
35444;SDS011;21562;49.476;6.086;2024-03-23T07:08:49;14.20;;;5.45;;
35444;SDS011;21562;49.476;6.086;2024-03-23T07:11:18;16.05;;;5.63;;
35444;SDS011;21562;49.476;6.086;2024-03-23T07:13:45;14.60;;;6.47;;
35444;SDS011;21562;49.476;6.086;2024-03-23T07:16:10;17.77;;;5.90;;
35444;SDS011;21562;49.476;6.086;2024-03-23T07:18:36;15.77;;;6.43;;
35444;SDS011;21562;49.476;6.086;2024-03-23T07:21:02;19.00;;;5.80;;
35444;SDS011;21562;49.476;6.086;2024-03-23T07:23:28;17.27;;;5.82;;
35444;SDS011;21562;49.476;6.086;2024-03-23T07:26:00;17.95;;;6.38;;
35444;SDS011;21562;49.476;6.086;2024-03-23T07:28:26;13.55;;;5.75;;
35444;SDS011;21562;49.476;6.086;2024-03-23T07:31:10;16.45;;;5.40;;
35444;SDS011;21562;49.476;6.086;2024-03-23T07:33:37;21.88;;;6.40;;
35444;SDS011;21562;49.476;6.086;2024-03-23T07:36:07;17.33;;;5.38;;
35444;SDS011;21562;49.476;6.086;2024-03-23T07:38:33;20.17;;;5.88;;
35444;SDS011;21562;49.476;6.086;2024-03-23T07:43:37;21.85;;;5.13;;
35444;SDS011;21562;49.476;6.086;2024-03-23T07:46:03;16.10;;;6.55;;
35444;SDS011;21562;49.476;6.086;2024-03-23T07:48:30;20.02;;;5.15;;
35444;SDS011;21562;49.476;6.086;2024-03-23T07:51:03;17.83;;;5.70;;
35444;SDS011;21562;49.476;6.086;2024-03-23T07:53:31;15.85;;;4.45;;
35444;SDS011;21562;49.476;6.086;2024-03-23T07:56:01;13.15;;;4.60;;
35444;SDS011;21562;49.476;6.086;2024-03-23T07:58:28;16.33;;;4.70;;
35444;SDS011;21562;49.476;6.086;2024-03-23T08:01:02;13.68;;;4.60;;
35444;SDS011;21562;49.476;6.086;2024-03-23T08:03:30;17.58;;;5.00;;
35444;SDS011;21562;49.476;6.086;2024-03-23T08:05:55;19.73;;;5.03;;
35444;SDS011;21562;49.476;6.086;2024-03-23T08:08:21;18.80;;;4.97;;
35444;SDS011;21562;49.476;6.086;2024-03-23T08:10:50;14.07;;;4.13;;
35444;SDS011;21562;49.476;6.086;2024-03-23T08:13:16;10.43;;;3.97;;
35444;SDS011;21562;49.476;6.086;2024-03-23T08:15:42;19.52;;;3.90;;
35444;SDS011;21562;49.476;6.086;2024-03-23T08:18:09;10.23;;;3.95;;
35444;SDS011;21562;49.476;6.086;2024-03-23T08:20:38;13.38;;;3.80;;
35444;SDS011;21562;49.476;6.086;2024-03-23T08:23:07;19.75;;;4.20;;
35444;SDS011;21562;49.476;6.086;2024-03-23T08:25:34;17.95;;;4.18;;
35444;SDS011;21562;49.476;6.086;2024-03-23T08:28:00;15.43;;;3.67;;
35444;SDS011;21562;49.476;6.086;2024-03-23T08:30:28;20.13;;;4.63;;
35444;SDS011;21562;49.476;6.086;2024-03-23T08:32:54;17.85;;;5.35;;
35444;SDS011;21562;49.476;6.086;2024-03-23T08:35:20;17.58;;;4.28;;
35444;SDS011;21562;49.476;6.086;2024-03-23T08:37:46;18.63;;;4.40;;
35444;SDS011;21562;49.476;6.086;2024-03-23T08:40:11;22.08;;;4.45;;
35444;SDS011;21562;49.476;6.086;2024-03-23T08:42:37;19.33;;;4.97;;
35444;SDS011;21562;49.476;6.086;2024-03-23T08:45:03;15.15;;;4.60;;
35444;SDS011;21562;49.476;6.086;2024-03-23T08:47:29;18.98;;;4.72;;
35444;SDS011;21562;49.476;6.086;2024-03-23T08:49:55;12.68;;;4.03;;
35444;SDS011;21562;49.476;6.086;2024-03-23T08:52:22;12.20;;;4.65;;
35444;SDS011;21562;49.476;6.086;2024-03-23T08:54:48;10.52;;;4.50;;
35444;SDS011;21562;49.476;6.086;2024-03-23T08:57:14;14.23;;;4.50;;
35444;SDS011;21562;49.476;6.086;2024-03-23T08:59:39;26.60;;;5.80;;
35444;SDS011;21562;49.476;6.086;2024-03-23T09:02:05;24.17;;;5.43;;
35444;SDS011;21562;49.476;6.086;2024-03-23T09:04:31;15.82;;;5.72;;
35444;SDS011;21562;49.476;6.086;2024-03-23T09:06:56;19.73;;;5.03;;
35444;SDS011;21562;49.476;6.086;2024-03-23T09:09:24;25.85;;;6.30;;
35444;SDS011;21562;49.476;6.086;2024-03-23T09:11:50;15.52;;;5.43;;
35444;SDS011;21562;49.476;6.086;2024-03-23T09:14:16;26.25;;;5.88;;
35444;SDS011;21562;49.476;6.086;2024-03-23T09:16:42;27.45;;;6.72;;
35444;SDS011;21562;49.476;6.086;2024-03-23T09:19:07;25.67;;;6.50;;
35444;SDS011;21562;49.476;6.086;2024-03-23T09:21:33;22.70;;;5.75;;
35444;SDS011;21562;49.476;6.086;2024-03-23T09:23:59;25.90;;;5.72;;
35444;SDS011;21562;49.476;6.086;2024-03-23T09:26:26;19.70;;;6.90;;
35444;SDS011;21562;49.476;6.086;2024-03-23T09:28:51;25.75;;;6.75;;
35444;SDS011;21562;49.476;6.086;2024-03-23T09:31:17;28.90;;;6.55;;
35444;SDS011;21562;49.476;6.086;2024-03-23T09:33:43;26.85;;;6.80;;
35444;SDS011;21562;49.476;6.086;2024-03-23T09:36:09;23.02;;;6.15;;
35444;SDS011;21562;49.476;6.086;2024-03-23T09:38:35;25.98;;;6.00;;
35444;SDS011;21562;49.476;6.086;2024-03-23T09:41:06;22.45;;;6.85;;
35444;SDS011;21562;49.476;6.086;2024-03-23T09:43:33;32.08;;;6.65;;
35444;SDS011;21562;49.476;6.086;2024-03-23T09:45:59;22.02;;;5.25;;
35444;SDS011;21562;49.476;6.086;2024-03-23T09:48:26;19.25;;;5.05;;
35444;SDS011;21562;49.476;6.086;2024-03-23T09:50:52;19.45;;;4.00;;
35444;SDS011;21562;49.476;6.086;2024-03-23T09:53:17;16.50;;;3.25;;
35444;SDS011;21562;49.476;6.086;2024-03-23T09:55:44;21.42;;;3.72;;
35444;SDS011;21562;49.476;6.086;2024-03-23T09:58:14;18.05;;;3.60;;
35444;SDS011;21562;49.476;6.086;2024-03-23T10:00:41;12.45;;;2.28;;
35444;SDS011;21562;49.476;6.086;2024-03-23T10:03:07;19.83;;;3.20;;
35444;SDS011;21562;49.476;6.086;2024-03-23T10:05:36;10.32;;;1.30;;
35444;SDS011;21562;49.476;6.086;2024-03-23T10:10:40;4.88;;;1.10;;
35444;SDS011;21562;49.476;6.086;2024-03-23T10:13:09;6.03;;;0.85;;
35444;SDS011;21562;49.476;6.086;2024-03-23T10:15:38;3.90;;;1.38;;
35444;SDS011;21562;49.476;6.086;2024-03-23T10:18:21;3.35;;;0.82;;
35444;SDS011;21562;49.476;6.086;2024-03-23T10:20:52;0.52;;;0.40;;
35444;SDS011;21562;49.476;6.086;2024-03-23T10:23:39;2.33;;;0.45;;
35444;SDS011;21562;49.476;6.086;2024-03-23T10:26:16;3.88;;;0.65;;
35444;SDS011;21562;49.476;6.086;2024-03-23T10:28:55;5.95;;;0.55;;
35444;SDS011;21562;49.476;6.086;2024-03-23T10:31:36;2.45;;;0.70;;
35444;SDS011;21562;49.476;6.086;2024-03-23T10:34:03;1.60;;;0.77;;
35444;SDS011;21562;49.476;6.086;2024-03-23T10:36:29;4.20;;;1.45;;
35444;SDS011;21562;49.476;6.086;2024-03-23T10:38:55;3.05;;;0.60;;
35444;SDS011;21562;49.476;6.086;2024-03-23T10:41:25;5.90;;;1.00;;
35444;SDS011;21562;49.476;6.086;2024-03-23T10:43:53;6.97;;;1.25;;
35444;SDS011;21562;49.476;6.086;2024-03-23T10:46:21;11.43;;;1.35;;
35444;SDS011;21562;49.476;6.086;2024-03-23T10:48:46;5.00;;;1.20;;
35444;SDS011;21562;49.476;6.086;2024-03-23T10:51:13;10.60;;;1.27;;
35444;SDS011;21562;49.476;6.086;2024-03-23T10:53:40;3.20;;;1.10;;
35444;SDS011;21562;49.476;6.086;2024-03-23T10:56:06;4.50;;;1.27;;
35444;SDS011;21562;49.476;6.086;2024-03-23T10:58:39;6.00;;;0.98;;
35444;SDS011;21562;49.476;6.086;2024-03-23T11:01:12;3.75;;;1.10;;
35444;SDS011;21562;49.476;6.086;2024-03-23T11:03:39;7.32;;;1.65;;
35444;SDS011;21562;49.476;6.086;2024-03-23T11:06:10;6.85;;;1.35;;
35444;SDS011;21562;49.476;6.086;2024-03-23T11:08:36;11.57;;;2.10;;
35444;SDS011;21562;49.476;6.086;2024-03-23T11:13:47;9.23;;;1.65;;
35444;SDS011;21562;49.476;6.086;2024-03-23T11:16:17;6.70;;;1.42;;
35444;SDS011;21562;49.476;6.086;2024-03-23T11:18:51;7.57;;;1.23;;
35444;SDS011;21562;49.476;6.086;2024-03-23T11:24:20;5.82;;;0.80;;
35444;SDS011;21562;49.476;6.086;2024-03-23T11:26:47;6.70;;;0.90;;
35444;SDS011;21562;49.476;6.086;2024-03-23T11:29:16;9.30;;;1.20;;
35444;SDS011;21562;49.476;6.086;2024-03-23T11:31:49;10.38;;;1.38;;
35444;SDS011;21562;49.476;6.086;2024-03-23T11:34:17;16.52;;;0.93;;
35444;SDS011;21562;49.476;6.086;2024-03-23T11:36:44;6.03;;;0.95;;
35444;SDS011;21562;49.476;6.086;2024-03-23T11:39:17;5.18;;;0.90;;
35444;SDS011;21562;49.476;6.086;2024-03-23T11:41:51;2.10;;;0.63;;
35444;SDS011;21562;49.476;6.086;2024-03-23T11:44:27;4.70;;;0.75;;
35444;SDS011;21562;49.476;6.086;2024-03-23T11:46:52;2.03;;;0.50;;
35444;SDS011;21562;49.476;6.086;2024-03-23T11:49:28;4.18;;;0.82;;
35444;SDS011;21562;49.476;6.086;2024-03-23T11:51:54;8.70;;;0.57;;
35444;SDS011;21562;49.476;6.086;2024-03-23T11:54:24;2.78;;;0.43;;
35444;SDS011;21562;49.476;6.086;2024-03-23T11:56:58;1.02;;;0.50;;
35444;SDS011;21562;49.476;6.086;2024-03-23T12:02:11;4.85;;;0.55;;
35444;SDS011;21562;49.476;6.086;2024-03-23T12:04:40;3.97;;;0.60;;
35444;SDS011;21562;49.476;6.086;2024-03-23T12:09:41;1.55;;;0.80;;
35444;SDS011;21562;49.476;6.086;2024-03-23T12:12:13;1.08;;;0.50;;
35444;SDS011;21562;49.476;6.086;2024-03-23T12:14:43;2.70;;;0.43;;
35444;SDS011;21562;49.476;6.086;2024-03-23T12:17:10;2.10;;;0.40;;
35444;SDS011;21562;49.476;6.086;2024-03-23T12:19:37;4.50;;;0.68;;
35444;SDS011;21562;49.476;6.086;2024-03-23T12:22:20;3.22;;;0.70;;
35444;SDS011;21562;49.476;6.086;2024-03-23T12:25:05;8.93;;;1.33;;
35444;SDS011;21562;49.476;6.086;2024-03-23T12:27:31;11.85;;;1.92;;
35444;SDS011;21562;49.476;6.086;2024-03-23T12:29:57;7.28;;;1.38;;
35444;SDS011;21562;49.476;6.086;2024-03-23T12:32:23;5.78;;;1.23;;
35444;SDS011;21562;49.476;6.086;2024-03-23T12:34:49;8.93;;;1.20;;
35444;SDS011;21562;49.476;6.086;2024-03-23T12:37:14;9.40;;;1.30;;
35444;SDS011;21562;49.476;6.086;2024-03-23T12:39:42;12.73;;;1.42;;
35444;SDS011;21562;49.476;6.086;2024-03-23T12:42:08;6.95;;;1.33;;
35444;SDS011;21562;49.476;6.086;2024-03-23T12:44:33;5.50;;;1.48;;
35444;SDS011;21562;49.476;6.086;2024-03-23T12:46:59;5.53;;;1.33;;
35444;SDS011;21562;49.476;6.086;2024-03-23T12:49:25;7.90;;;1.27;;
35444;SDS011;21562;49.476;6.086;2024-03-23T12:51:54;16.05;;;1.85;;
35444;SDS011;21562;49.476;6.086;2024-03-23T12:54:21;9.70;;;1.77;;
35444;SDS011;21562;49.476;6.086;2024-03-23T12:56:47;12.60;;;1.88;;
35444;SDS011;21562;49.476;6.086;2024-03-23T12:59:19;8.02;;;1.23;;
35444;SDS011;21562;49.476;6.086;2024-03-23T13:01:45;9.60;;;1.48;;
35444;SDS011;21562;49.476;6.086;2024-03-23T13:04:10;7.43;;;1.38;;
35444;SDS011;21562;49.476;6.086;2024-03-23T13:06:36;4.78;;;1.17;;
35444;SDS011;21562;49.476;6.086;2024-03-23T13:09:03;6.47;;;1.30;;
35444;SDS011;21562;49.476;6.086;2024-03-23T13:11:30;6.75;;;0.85;;
35444;SDS011;21562;49.476;6.086;2024-03-23T13:13:56;3.55;;;0.57;;
35444;SDS011;21562;49.476;6.086;2024-03-23T13:16:21;4.93;;;0.77;;
35444;SDS011;21562;49.476;6.086;2024-03-23T13:18:47;2.85;;;0.52;;
35444;SDS011;21562;49.476;6.086;2024-03-23T13:21:13;7.00;;;0.88;;
35444;SDS011;21562;49.476;6.086;2024-03-23T13:23:39;2.85;;;0.50;;
35444;SDS011;21562;49.476;6.086;2024-03-23T13:26:07;5.75;;;0.68;;
35444;SDS011;21562;49.476;6.086;2024-03-23T13:28:33;2.40;;;0.50;;
35444;SDS011;21562;49.476;6.086;2024-03-23T13:31:00;1.65;;;0.50;;
35444;SDS011;21562;49.476;6.086;2024-03-23T13:33:31;4.05;;;0.60;;
35444;SDS011;21562;49.476;6.086;2024-03-23T13:35:57;4.72;;;0.80;;
35444;SDS011;21562;49.476;6.086;2024-03-23T13:38:23;3.83;;;0.68;;
35444;SDS011;21562;49.476;6.086;2024-03-23T13:40:53;5.03;;;0.55;;
35444;SDS011;21562;49.476;6.086;2024-03-23T13:43:21;6.75;;;0.85;;
35444;SDS011;21562;49.476;6.086;2024-03-23T13:45:47;1.30;;;0.43;;
35444;SDS011;21562;49.476;6.086;2024-03-23T13:48:15;2.90;;;0.63;;
35444;SDS011;21562;49.476;6.086;2024-03-23T13:50:41;2.72;;;0.50;;
35444;SDS011;21562;49.476;6.086;2024-03-23T13:53:07;5.35;;;0.52;;
35444;SDS011;21562;49.476;6.086;2024-03-23T13:55:33;5.78;;;0.88;;
35444;SDS011;21562;49.476;6.086;2024-03-23T13:57:59;4.80;;;0.60;;
35444;SDS011;21562;49.476;6.086;2024-03-23T14:00:25;4.63;;;0.80;;
35444;SDS011;21562;49.476;6.086;2024-03-23T14:02:51;4.45;;;1.20;;
35444;SDS011;21562;49.476;6.086;2024-03-23T14:05:16;2.97;;;1.08;;
35444;SDS011;21562;49.476;6.086;2024-03-23T14:07:42;9.23;;;1.05;;
35444;SDS011;21562;49.476;6.086;2024-03-23T14:10:08;3.42;;;0.55;;
35444;SDS011;21562;49.476;6.086;2024-03-23T14:12:37;1.63;;;0.40;;
35444;SDS011;21562;49.476;6.086;2024-03-23T14:15:06;3.22;;;0.70;;
35444;SDS011;21562;49.476;6.086;2024-03-23T14:17:32;2.38;;;0.60;;
35444;SDS011;21562;49.476;6.086;2024-03-23T14:19:58;9.32;;;0.90;;
35444;SDS011;21562;49.476;6.086;2024-03-23T14:22:26;2.20;;;0.63;;
35444;SDS011;21562;49.476;6.086;2024-03-23T14:24:53;2.85;;;0.73;;
35444;SDS011;21562;49.476;6.086;2024-03-23T14:27:19;3.72;;;0.80;;
35444;SDS011;21562;49.476;6.086;2024-03-23T14:29:48;1.58;;;0.50;;
35444;SDS011;21562;49.476;6.086;2024-03-23T14:32:13;4.35;;;0.40;;
35444;SDS011;21562;49.476;6.086;2024-03-23T14:34:40;3.45;;;1.02;;
35444;SDS011;21562;49.476;6.086;2024-03-23T14:37:06;4.47;;;0.40;;
35444;SDS011;21562;49.476;6.086;2024-03-23T14:39:32;3.30;;;0.63;;
35444;SDS011;21562;49.476;6.086;2024-03-23T14:42:39;2.55;;;0.30;;
35444;SDS011;21562;49.476;6.086;2024-03-23T14:45:06;2.78;;;0.50;;
35444;SDS011;21562;49.476;6.086;2024-03-23T14:47:34;2.08;;;0.55;;
35444;SDS011;21562;49.476;6.086;2024-03-23T14:50:07;6.03;;;0.60;;
35444;SDS011;21562;49.476;6.086;2024-03-23T14:52:39;4.15;;;0.88;;
35444;SDS011;21562;49.476;6.086;2024-03-23T14:55:06;4.40;;;0.50;;
35444;SDS011;21562;49.476;6.086;2024-03-23T14:57:35;4.45;;;0.60;;
35444;SDS011;21562;49.476;6.086;2024-03-23T15:00:02;6.40;;;0.88;;
35444;SDS011;21562;49.476;6.086;2024-03-23T15:02:34;2.38;;;0.55;;
35444;SDS011;21562;49.476;6.086;2024-03-23T15:05:00;8.57;;;1.13;;
35444;SDS011;21562;49.476;6.086;2024-03-23T15:07:30;8.02;;;0.70;;
35444;SDS011;21562;49.476;6.086;2024-03-23T15:09:59;1.40;;;0.47;;
35444;SDS011;21562;49.476;6.086;2024-03-23T15:12:39;3.45;;;0.50;;
35444;SDS011;21562;49.476;6.086;2024-03-23T15:15:05;3.42;;;0.35;;
35444;SDS011;21562;49.476;6.086;2024-03-23T15:17:33;2.75;;;0.50;;
35444;SDS011;21562;49.476;6.086;2024-03-23T15:20:28;1.55;;;0.47;;
35444;SDS011;21562;49.476;6.086;2024-03-23T15:23:20;4.47;;;0.32;;
35444;SDS011;21562;49.476;6.086;2024-03-23T15:26:02;1.40;;;0.35;;
35444;SDS011;21562;49.476;6.086;2024-03-23T15:28:29;5.32;;;1.60;;
35444;SDS011;21562;49.476;6.086;2024-03-23T15:31:15;1.13;;;0.50;;
35444;SDS011;21562;49.476;6.086;2024-03-23T15:33:41;1.00;;;0.43;;
35444;SDS011;21562;49.476;6.086;2024-03-23T15:36:07;3.10;;;0.57;;
35444;SDS011;21562;49.476;6.086;2024-03-23T15:38:34;0.47;;;0.40;;
35444;SDS011;21562;49.476;6.086;2024-03-23T15:41:02;3.03;;;0.40;;
35444;SDS011;21562;49.476;6.086;2024-03-23T15:43:42;1.23;;;0.30;;
35444;SDS011;21562;49.476;6.086;2024-03-23T15:46:09;3.03;;;0.63;;
35444;SDS011;21562;49.476;6.086;2024-03-23T15:48:44;4.43;;;1.10;;
35444;SDS011;21562;49.476;6.086;2024-03-23T15:51:14;2.55;;;0.63;;